Time;durP1;ratioP1;P1;durP2;ratioP2;P2;SDS_P1;SDS_P2;PMS_P1;PMS_P2;Temp;Humidity;BMP_temperature;BMP_pressure;BME280_temperature;BME280_humidity;BME280_pressure;Samples;Min_cycle;Max_cycle;Signal;HPM_P1;HPM_P2
2024/04/18 00:01:43;;;;;;;15.85;6.20;;;;;;;7.35;62.37;98729.88;5341690;26;20054;-71
2024/04/18 00:04:10;;;;;;;22.92;7.68;;;;;;;7.21;62.42;98719.69;5370659;26;20489;-71
2024/04/18 00:06:37;;;;;;;21.45;6.90;;;;;;;7.33;62.45;98752.31;5385998;26;20492;-71
2024/04/18 00:09:09;;;;;;;27.75;8.02;;;;;;;7.08;62.77;98731.91;5372284;26;20438;-71
2024/04/18 00:11:36;;;;;;;31.92;7.65;;;;;;;7.29;62.53;98781.69;5366619;26;20016;-70
2024/04/18 00:14:11;;;;;;;23.58;8.70;;;;;;;7.22;62.99;98781.75;5430979;26;20003;-70
2024/04/18 00:16:38;;;;;;;30.35;7.65;;;;;;;7.18;63.36;98798.19;5387737;26;20002;-71
2024/04/18 00:19:18;;;;;;;33.25;9.45;;;;;;;7.16;63.08;98799.97;5368677;26;20472;-70
2024/04/18 00:22:03;;;;;;;24.98;8.15;;;;;;;6.95;62.85;98795.00;5374894;26;20481;-71
2024/04/18 00:24:29;;;;;;;20.08;7.13;;;;;;;6.81;63.74;98780.47;5330041;26;20014;-71
2024/04/18 00:26:56;;;;;;;28.10;7.35;;;;;;;7.00;63.11;98817.38;5370377;26;20006;-71
2024/04/18 00:29:37;;;;;;;30.00;8.35;;;;;;;6.96;63.48;98818.25;5371537;26;20097;-71
2024/04/18 00:32:10;;;;;;;27.00;8.43;;;;;;;6.78;63.44;98791.72;5397279;26;19995;-71
2024/04/18 00:34:37;;;;;;;30.58;8.23;;;;;;;6.93;63.39;98828.63;5396601;26;20010;-70
2024/04/18 00:37:03;;;;;;;22.08;7.72;;;;;;;6.82;63.42;98812.38;5399804;26;20014;-72
2024/04/18 00:39:50;;;;;;;28.83;8.25;;;;;;;6.55;63.79;98768.63;5374436;26;20358;-72
2024/04/18 00:42:35;;;;;;;20.10;6.97;;;;;;;6.53;63.56;98779.88;5343946;26;20008;-71
2024/04/18 00:45:07;;;;;;;21.90;8.30;;;;;;;6.82;63.72;98820.97;5367231;26;20071;-70
2024/04/18 00:47:46;;;;;;;21.20;7.90;;;;;;;6.40;64.22;98773.94;5339146;26;19999;-69
2024/04/18 00:50:15;;;;;;;25.00;9.38;;;;;;;6.61;64.05;98822.88;5416878;26;20142;-69
2024/04/18 00:52:42;;;;;;;22.90;11.13;;;;;;;6.62;64.16;98842.69;5434019;26;20063;-70
2024/04/18 00:55:28;;;;;;;28.58;12.40;;;;;;;6.37;64.53;98799.81;5421730;26;20063;-72
2024/04/18 00:58:11;;;;;;;24.05;7.45;;;;;;;6.57;64.56;98849.63;5423633;26;20361;-70
2024/04/18 01:00:42;;;;;;;;;;;;;;;6.63;64.59;98867.69;5464500;26;20013;-70
2024/04/18 01:03:28;;;;;;;32.45;14.52;;;;;;;6.30;64.46;98823.09;5470774;26;19948;-70
2024/04/18 01:06:08;;;;;;;34.50;13.20;;;;;;;6.55;64.42;98853.94;5467401;26;20014;-70
2024/04/18 01:08:55;;;;;;;33.75;12.13;;;;;;;6.59;64.64;98865.13;5441852;26;19998;-70
2024/04/18 01:11:32;;;;;;;29.80;13.55;;;;;;;6.56;64.57;98854.81;5463556;26;20002;-71
2024/04/18 01:14:10;;;;;;;27.95;12.88;;;;;;;6.56;64.62;98847.91;5466077;26;20030;-70
2024/04/18 01:16:55;;;;;;;33.03;12.70;;;;;;;6.52;65.14;98820.34;5437032;26;20716;-71
2024/04/18 01:19:22;;;;;;;32.85;12.45;;;;;;;6.73;64.76;98834.00;5434037;26;19998;-70
2024/04/18 01:21:48;;;;;;;33.47;13.25;;;;;;;6.73;64.83;98818.50;5433797;26;20074;-70
2024/04/18 01:24:15;;;;;;;28.27;13.68;;;;;;;6.85;64.93;98839.06;5401828;26;20430;-72
2024/04/18 01:26:41;;;;;;;33.85;13.98;;;;;;;6.62;64.70;98790.16;5464394;26;20030;-71
2024/04/18 01:29:07;;;;;;;30.75;13.73;;;;;;;6.97;65.08;98847.56;5400698;26;20007;-71
2024/04/18 01:31:33;;;;;;;36.10;13.48;;;;;;;6.69;64.64;98791.78;5400907;26;20011;-71
2024/04/18 01:34:00;;;;;;;28.33;12.02;;;;;;;6.96;64.87;98840.66;5429453;26;20006;-71
2024/04/18 01:36:26;;;;;;;31.85;11.20;;;;;;;6.88;64.61;98833.84;5436121;26;20088;-70
2024/04/18 01:38:52;;;;;;;27.75;10.70;;;;;;;6.86;64.79;98832.13;5405771;26;19998;-71
2024/04/18 01:41:31;;;;;;;31.02;10.73;;;;;;;6.47;64.62;98770.44;5458516;26;20030;-69
2024/04/18 01:44:00;;;;;;;37.70;16.10;;;;;;;6.46;64.74;98774.75;5431731;26;20002;-71
2024/04/18 01:46:49;;;;;;;33.53;13.77;;;;;;;6.62;64.81;98800.47;5415256;26;20011;-70
2024/04/18 01:49:31;;;;;;;39.08;12.73;;;;;;;6.48;64.73;98779.94;5464365;26;20025;-70
2024/04/18 01:52:00;;;;;;;32.35;11.68;;;;;;;6.65;64.88;98809.94;5393450;26;19999;-70
2024/04/18 01:54:32;;;;;;;31.38;9.45;;;;;;;6.43;64.69;98799.78;5341461;26;20018;-71
2024/04/18 01:57:01;;;;;;;35.60;10.13;;;;;;;6.62;64.37;98837.53;5371991;26;20075;-69
2024/04/18 01:59:57;;;;;;;29.92;9.23;;;;;;;6.66;64.63;98846.09;5307825;26;20052;-69
2024/04/18 02:02:25;;;;;;;30.23;9.63;;;;;;;6.58;64.65;98828.06;5389474;26;20077;-69
2024/04/18 02:05:10;;;;;;;45.13;11.13;;;;;;;6.72;64.71;98853.81;5371857;26;20663;-68
2024/04/18 02:07:44;;;;;;;35.75;10.82;;;;;;;6.64;64.52;98834.91;5389140;26;20051;-69
2024/04/18 02:10:13;;;;;;;36.47;11.10;;;;;;;6.63;64.41;98835.78;5368001;26;20057;-69
2024/04/18 02:12:58;;;;;;;45.60;11.30;;;;;;;6.63;64.42;98825.44;5396750;26;19999;-72
2024/04/18 02:15:44;;;;;;;37.03;10.80;;;;;;;6.54;64.42;98822.94;5340940;26;20019;-70
2024/04/18 02:18:14;;;;;;;45.78;10.75;;;;;;;6.80;64.23;98843.41;5387901;26;20015;-70
2024/04/18 02:20:41;;;;;;;31.17;9.93;;;;;;;6.96;64.41;98862.22;5362373;26;20069;-70
2024/04/18 02:23:27;;;;;;;39.70;10.35;;;;;;;7.09;64.56;98861.22;5395729;26;20028;-70
2024/04/18 02:25:54;;;;;;;28.35;10.23;;;;;;;7.16;64.68;98862.06;5366226;26;20041;-70
2024/04/18 02:28:20;;;;;;;31.63;10.57;;;;;;;6.82;64.23;98797.69;5365439;26;20018;-71
2024/04/18 02:30:46;;;;;;;26.45;10.27;;;;;;;7.04;64.68;98829.41;5336973;26;20035;-70
2024/04/18 02:33:15;;;;;;;51.55;12.10;;;;;;;7.07;64.68;98821.56;5369881;26;20453;-70
2024/04/18 02:35:48;;;;;;;29.00;9.45;;;;;;;7.37;64.13;98860.13;5335366;26;20043;-70
2024/04/18 02:38:34;;;;;;;19.85;9.65;;;;;;;7.24;64.47;98831.75;5370364;26;20000;-69
2024/04/18 02:41:05;;;;;;;26.08;10.80;;;;;;;7.29;64.22;98830.84;5363036;26;20013;-69
2024/04/18 02:43:53;;;;;;;34.97;10.40;;;;;;;7.38;64.35;98818.66;5364266;26;20035;-69
2024/04/18 02:46:21;;;;;;;;;;;;;;;7.73;64.51;98870.91;5427140;26;20348;-69
2024/04/18 02:49:05;;;;;;;21.80;9.80;;;;;;;7.63;64.26;98853.75;5363892;26;19968;-69
2024/04/18 02:51:32;;;;;;;39.58;11.52;;;;;;;7.71;64.34;98853.69;5424831;26;20041;-69
2024/04/18 02:54:13;;;;;;;47.22;11.32;;;;;;;7.77;64.29;98851.00;5396099;26;20011;-70
2024/04/18 02:56:43;;;;;;;41.08;11.07;;;;;;;7.92;63.83;98865.50;5369111;26;20026;-70
2024/04/18 02:59:10;;;;;;;76.40;29.65;;;;;;;7.86;64.17;98837.94;5363337;26;19999;-70
2024/04/18 03:01:50;;;;;;;26.63;11.73;;;;;;;8.00;63.83;98858.50;5387957;26;22400;-71
2024/04/18 03:04:19;;;;;;;26.30;11.90;;;;;;;8.09;63.60;98858.34;5334568;26;19999;-71
2024/04/18 03:06:46;;;;;;;23.85;10.82;;;;;;;8.31;63.44;98872.75;5427047;26;20014;-70
2024/04/18 03:09:14;;;;;;;38.35;12.65;;;;;;;8.35;63.64;98859.72;5358192;26;19999;-71
2024/04/18 03:11:55;;;;;;;32.03;11.20;;;;;;;8.21;63.40;98815.00;5397539;26;20017;-70
2024/04/18 03:14:49;;;;;;;31.30;11.85;;;;;;;8.28;63.01;98807.13;5394185;26;19999;-71
2024/04/18 03:17:15;;;;;;;35.25;12.32;;;;;;;8.54;63.04;98839.59;5361817;26;20019;-70
2024/04/18 03:20:01;;;;;;;26.30;12.77;;;;;;;8.61;63.08;98837.75;5370373;26;20013;-70
2024/04/18 03:22:31;;;;;;;28.00;11.50;;;;;;;8.44;63.18;98781.81;5397604;26;20019;-72
2024/04/18 03:24:59;;;;;;;28.05;13.48;;;;;;;8.76;62.39;98828.00;5425941;26;20039;-71
2024/04/18 03:27:35;;;;;;;25.88;12.23;;;;;;;8.81;63.17;98831.38;5419310;26;19995;-71
2024/04/18 03:30:03;;;;;;;26.27;13.20;;;;;;;8.79;62.62;98843.50;5368127;26;20418;-72
2024/04/18 03:32:37;;;;;;;30.35;13.65;;;;;;;8.74;63.56;98822.84;5429515;26;20472;-70
2024/04/18 03:35:04;;;;;;;30.40;13.70;;;;;;;8.95;63.51;98844.09;5398033;26;20004;-70
2024/04/18 03:37:33;;;;;;;29.05;14.75;;;;;;;9.06;63.63;98849.94;5398442;26;20469;-72
2024/04/18 03:40:20;;;;;;;27.05;14.10;;;;;;;9.12;63.24;98851.59;5427161;26;20525;-70
2024/04/18 03:43:02;;;;;;;23.08;13.50;;;;;;;8.95;62.99;98842.34;5390275;26;20354;-70
2024/04/18 03:45:28;;;;;;;27.50;13.85;;;;;;;9.09;63.47;98867.22;5427420;26;20017;-71
2024/04/18 03:48:15;;;;;;;25.92;13.50;;;;;;;9.12;63.46;98851.59;5395827;26;20007;-72
2024/04/18 03:50:46;;;;;;;25.58;14.90;;;;;;;8.98;63.36;98842.31;5427257;26;20006;-70
2024/04/18 03:53:21;;;;;;;27.00;14.23;;;;;;;9.13;63.63;98841.19;5458922;26;19998;-74
2024/04/18 03:56:08;;;;;;;24.60;14.38;;;;;;;9.15;64.19;98859.34;5462276;26;20321;-72
2024/04/18 03:58:35;;;;;;;23.42;14.05;;;;;;;9.22;63.94;98866.09;5372885;26;20006;-70
2024/04/18 04:01:01;;;;;;;27.65;14.38;;;;;;;8.83;62.81;98829.59;5429976;26;20436;-71
2024/04/18 04:03:30;;;;;;;22.50;13.55;;;;;;;9.02;64.15;98843.97;5429717;26;20006;-70
2024/04/18 04:05:56;;;;;;;30.88;14.35;;;;;;;9.10;64.18;98867.19;5432038;26;20079;-72
2024/04/18 04:08:23;;;;;;;25.05;14.32;;;;;;;9.07;63.78;98871.59;5456560;26;20017;-71
2024/04/18 04:11:09;;;;;;;22.40;13.98;;;;;;;8.80;63.85;98819.28;5452514;26;20011;-71
2024/04/18 04:13:36;;;;;;;22.63;14.52;;;;;;;9.08;64.18;98868.09;5457886;26;19994;-69
2024/04/18 04:16:18;;;;;;;20.70;13.65;;;;;;;8.89;64.14;98852.88;5435471;26;20018;-69
2024/04/18 04:18:45;;;;;;;26.00;14.68;;;;;;;8.78;64.02;98840.06;5435148;26;20026;-72
2024/04/18 04:21:31;;;;;;;27.27;14.15;;;;;;;8.82;64.40;98856.44;5433330;26;20026;-69
2024/04/18 04:23:58;;;;;;;23.50;14.00;;;;;;;9.08;64.89;98891.47;5464552;26;20002;-71
2024/04/18 04:26:44;;;;;;;21.70;14.27;;;;;;;9.25;64.91;98884.22;5462176;26;22317;-70
2024/04/18 04:29:11;;;;;;;22.45;13.77;;;;;;;9.08;64.31;98860.31;5439616;26;20037;-72
2024/04/18 04:31:38;;;;;;;28.05;14.82;;;;;;;9.34;64.95;98891.88;5432450;26;20032;-74
2024/04/18 04:34:07;;;;;;;25.30;14.52;;;;;;;9.46;65.02;98889.91;5425085;26;20018;-71
2024/04/18 04:36:34;;;;;;;24.77;14.13;;;;;;;9.50;64.77;98878.59;5463705;26;20017;-70
2024/04/18 04:39:00;;;;;;;30.05;14.90;;;;;;;9.40;64.61;98832.88;5432450;26;20482;-72
2024/04/18 04:41:41;;;;;;;23.83;13.90;;;;;;;9.75;64.68;98886.75;5383679;26;20008;-74
2024/04/18 04:44:13;;;;;;;20.63;14.13;;;;;;;9.84;64.42;98890.88;5435473;26;20253;-73
2024/04/18 04:46:51;;;;;;;23.17;14.10;;;;;;;9.82;64.24;98869.28;5435237;26;20006;-72
2024/04/18 04:49:20;;;;;;;20.20;13.90;;;;;;;9.94;64.12;98882.03;5399552;26;20017;-73
2024/04/18 04:52:06;;;;;;;21.67;14.32;;;;;;;9.90;64.06;98861.34;5437838;26;20025;-71
2024/04/18 04:54:46;;;;;;;20.80;13.63;;;;;;;9.88;63.85;98840.56;5426967;26;20006;-72
2024/04/18 04:57:13;;;;;;;22.17;13.13;;;;;;;10.17;63.69;98866.81;5425994;26;20011;-70
2024/04/18 04:59:40;;;;;;;24.42;13.20;;;;;;;10.23;63.80;98867.56;5462494;26;20029;-70
2024/04/18 05:02:07;;;;;;;22.05;13.23;;;;;;;10.16;63.45;98842.56;5460569;26;20002;-70
2024/04/18 05:04:52;;;;;;;25.77;13.13;;;;;;;10.51;62.94;98881.69;5405355;26;19998;-73
2024/04/18 05:07:35;;;;;;;19.80;12.13;;;;;;;10.33;63.11;98841.31;5426339;26;19999;-71
2024/04/18 05:10:21;;;;;;;22.58;12.48;;;;;;;10.61;62.88;98870.16;5457798;26;19995;-71
2024/04/18 05:12:51;;;;;;;20.13;12.27;;;;;;;10.69;62.44;98868.25;5460914;26;20065;-72
2024/04/18 05:15:36;;;;;;;25.00;13.73;;;;;;;10.70;62.23;98869.13;5426697;26;20014;-70
2024/04/18 05:18:04;;;;;;;23.35;12.65;;;;;;;10.90;62.50;98883.38;5463266;26;20112;-72
2024/04/18 05:20:30;;;;;;;21.75;12.30;;;;;;;10.84;62.49;98845.34;5462023;26;20019;-72
2024/04/18 05:22:56;;;;;;;19.02;11.98;;;;;;;11.15;61.77;98868.81;5462528;26;20013;-71
2024/04/18 05:25:23;;;;;;;20.30;12.45;;;;;;;11.27;61.36;98877.22;5433548;26;20010;-71
2024/04/18 05:28:03;;;;;;;22.08;12.13;;;;;;;11.39;61.36;98902.09;5456250;26;20038;-72
2024/04/18 05:33:18;;;;;;;17.75;11.48;;;;;;;11.50;60.76;98902.66;5456057;26;20015;-72
2024/04/18 05:35:45;;;;;;;17.95;11.40;;;;;;;11.45;60.78;98888.91;5463257;26;20091;-72
2024/04/18 05:38:11;;;;;;;19.63;12.18;;;;;;;11.31;60.35;98858.03;5430085;26;20022;-71
2024/04/18 05:40:37;;;;;;;17.63;11.93;;;;;;;11.63;60.34;98878.88;5431832;26;20002;-72
2024/04/18 05:43:03;;;;;;;16.95;11.45;;;;;;;11.99;60.39;98908.28;5461882;26;20047;-71
2024/04/18 05:45:47;;;;;;;18.10;11.23;;;;;;;12.10;60.21;98904.50;5408531;26;20021;-72
2024/04/18 05:48:14;;;;;;;18.95;10.88;;;;;;;12.26;59.61;98908.34;5401545;26;20014;-71
2024/04/18 05:50:41;;;;;;;18.42;11.23;;;;;;;12.24;59.39;98878.88;5432007;26;20002;-71
2024/04/18 05:53:21;;;;;;;17.25;11.05;;;;;;;12.56;59.63;98910.94;5405035;26;20006;-72
2024/04/18 05:55:54;;;;;;;17.48;11.48;;;;;;;12.60;58.54;98902.13;5458407;26;20168;-71
2024/04/18 05:58:21;;;;;;;17.83;11.60;;;;;;;12.39;58.50;98864.50;5464233;26;20054;-72
2024/04/18 06:00:55;;;;;;;17.83;10.63;;;;;;;12.61;57.87;98898.59;5458754;26;20599;-72
2024/04/18 06:03:22;;;;;;;22.10;11.65;;;;;;;12.75;57.78;98919.06;5428645;26;20009;-72
2024/04/18 06:05:49;;;;;;;14.38;11.50;;;;;;;12.66;57.92;98901.06;5461295;26;20475;-72
2024/04/18 06:08:15;;;;;;;20.60;10.90;;;;;;;12.64;57.57;98902.88;5401414;26;20014;-71
2024/04/18 06:10:42;;;;;;;16.92;11.10;;;;;;;12.53;57.28;98891.94;5462090;26;20046;-71
2024/04/18 06:13:24;;;;;;;16.38;10.50;;;;;;;12.74;57.25;98899.06;5462298;26;20006;-73
2024/04/18 06:15:51;;;;;;;14.68;10.57;;;;;;;13.00;57.43;98922.63;5449393;26;20023;-71
2024/04/18 06:18:20;;;;;;;16.20;10.73;;;;;;;13.11;56.65;98917.91;5461418;26;20009;-73
2024/04/18 06:20:50;;;;;;;18.85;10.88;;;;;;;13.09;56.96;98911.88;5455118;26;20082;-70
2024/04/18 06:23:16;;;;;;;16.38;10.23;;;;;;;13.03;56.55;98875.53;5434317;26;20499;-72
2024/04/18 06:26:03;;;;;;;15.82;10.65;;;;;;;13.39;56.27;98875.16;5430789;26;20010;-73
2024/04/18 06:28:29;;;;;;;16.40;9.73;;;;;;;13.82;56.17;98873.63;5449388;26;20013;-72
2024/04/18 06:30:59;;;;;;;13.13;8.90;;;;;;;14.50;55.47;98914.69;5466960;26;20472;-73
2024/04/18 06:33:29;;;;;;;15.93;9.05;;;;;;;14.45;54.69;98925.31;5407025;26;20026;-71
2024/04/18 06:35:56;;;;;;;14.45;9.00;;;;;;;14.48;53.58;98927.00;5437559;26;20018;-69
2024/04/18 06:38:22;;;;;;;13.25;9.00;;;;;;;14.26;53.64;98851.06;5407180;26;20452;-72
2024/04/18 06:40:48;;;;;;;13.00;8.23;;;;;;;15.19;53.50;98924.19;5464437;26;20002;-72
2024/04/18 06:43:14;;;;;;;11.63;8.30;;;;;;;15.48;52.07;98902.88;5434611;26;20002;-73
2024/04/18 06:45:40;;;;;;;11.65;7.95;;;;;;;16.07;50.57;98927.41;5466411;26;20009;-73
2024/04/18 06:48:09;;;;;;;10.50;7.80;;;;;;;15.90;50.69;98901.06;5462816;26;20018;-74
2024/04/18 06:50:38;;;;;;;10.55;7.90;;;;;;;16.02;50.42;98918.91;5446786;26;19995;-72
2024/04/18 06:53:05;;;;;;;11.85;7.90;;;;;;;16.23;49.75;98930.16;5399324;26;20012;-73
2024/04/18 06:55:34;;;;;;;11.15;7.57;;;;;;;16.35;49.13;98933.16;5368576;26;20021;-71
2024/04/18 06:58:00;;;;;;;12.45;8.15;;;;;;;16.27;48.41;98928.28;5398382;26;20456;-71
2024/04/18 07:00:27;;;;;;;11.02;7.80;;;;;;;16.04;48.42;98910.94;5427727;26;20018;-72
2024/04/18 07:02:53;;;;;;;12.20;8.60;;;;;;;15.82;48.50;98904.00;5416671;26;20075;-73
2024/04/18 07:05:39;;;;;;;10.88;7.85;;;;;;;15.41;48.27;98952.09;5401563;26;20003;-72
2024/04/18 07:08:21;;;;;;;8.90;7.57;;;;;;;14.93;48.38;98966.31;5417112;26;20002;-72
2024/04/18 07:10:47;;;;;;;12.60;8.45;;;;;;;14.30;49.43;98924.19;5387942;26;20007;-72
2024/04/18 07:13:33;;;;;;;9.70;8.20;;;;;;;14.49;50.39;98954.00;5341471;26;20365;-71
2024/04/18 07:16:03;;;;;;;12.00;7.57;;;;;;;14.21;49.92;98932.38;5368547;26;20018;-73
2024/04/18 07:18:49;;;;;;;9.18;7.20;;;;;;;14.15;50.52;98886.38;5367031;26;20056;-72
2024/04/18 07:21:16;;;;;;;13.05;8.25;;;;;;;14.07;49.00;98903.25;5399483;26;20010;-72
2024/04/18 07:23:43;;;;;;;12.57;8.70;;;;;;;14.10;49.77;98924.06;5370068;26;20134;-72
2024/04/18 07:26:09;;;;;;;11.50;6.03;;;;;;;14.14;50.84;98923.91;5397094;26;20015;-73
2024/04/18 07:28:36;;;;;;;16.70;5.45;;;;;;;13.96;50.41;98922.81;5363981;26;20018;-75
2024/04/18 07:31:02;;;;;;;8.65;5.15;;;;;;;13.96;49.91;98914.13;5429753;26;20003;-74
2024/04/18 07:33:29;;;;;;;8.93;5.82;;;;;;;13.81;50.21;98905.06;5340299;26;20006;-72
2024/04/18 07:35:57;;;;;;;13.32;6.45;;;;;;;14.09;50.24;98936.28;5362777;26;20022;-72
2024/04/18 07:38:29;;;;;;;10.98;5.63;;;;;;;14.36;49.62;98951.88;5430117;26;20105;-72
2024/04/18 07:40:57;;;;;;;7.03;5.32;;;;;;;14.07;49.28;98943.34;5338720;26;20015;-73
2024/04/18 07:43:23;;;;;;;9.50;6.13;;;;;;;14.09;49.80;98928.44;5372435;26;21830;-73
2024/04/18 07:45:49;;;;;;;10.52;5.07;;;;;;;13.90;48.95;98909.97;5368350;26;20015;-73
2024/04/18 07:48:16;;;;;;;11.90;5.47;;;;;;;14.07;49.20;98956.41;5368392;26;20011;-73
2024/04/18 07:50:44;;;;;;;10.00;6.18;;;;;;;13.98;48.98;98938.47;5399495;26;20013;-71
2024/04/18 07:53:10;;;;;;;6.47;5.18;;;;;;;13.83;49.67;98900.66;5429188;26;20007;-71
2024/04/18 07:55:36;;;;;;;6.47;5.13;;;;;;;14.14;49.17;98942.22;5463567;26;20021;-73
2024/04/18 07:58:02;;;;;;;5.95;4.70;;;;;;;14.09;49.25;98890.97;5433948;26;19998;-74
2024/04/18 08:00:28;;;;;;;8.13;4.60;;;;;;;14.37;49.03;98916.94;5458922;26;20035;-72
2024/04/18 08:02:54;;;;;;;7.90;4.88;;;;;;;14.37;48.23;98919.56;5402637;26;20033;-72
2024/04/18 08:05:20;;;;;;;7.78;5.53;;;;;;;14.13;48.54;98919.56;5464288;26;20002;-72
2024/04/18 08:07:46;;;;;;;6.65;4.88;;;;;;;13.79;48.79;98886.81;5433905;26;20060;-73
2024/04/18 08:10:14;;;;;;;6.88;4.50;;;;;;;13.85;48.56;98936.28;5460094;26;20014;-75
2024/04/18 08:12:40;;;;;;;5.90;4.82;;;;;;;13.35;48.77;98895.31;5464317;26;20019;-72
2024/04/18 08:15:07;;;;;;;6.13;5.00;;;;;;;13.15;48.68;98906.44;5417133;26;20047;-72
2024/04/18 08:17:39;;;;;;;7.07;4.85;;;;;;;13.42;49.77;98936.94;5398256;26;20035;-71
2024/04/18 08:20:06;;;;;;;7.25;4.95;;;;;;;13.29;49.43;98915.56;5423991;26;20051;-72
2024/04/18 08:22:34;;;;;;;7.78;4.82;;;;;;;13.28;50.29;98893.81;5455351;26;20013;-72
2024/04/18 08:25:06;;;;;;;9.07;6.30;;;;;;;13.48;48.95;98892.28;5436823;26;20006;-72
2024/04/18 08:27:33;;;;;;;12.65;6.45;;;;;;;13.67;50.31;98902.97;5400165;26;20069;-72
2024/04/18 08:30:01;;;;;;;12.15;7.00;;;;;;;13.75;49.69;98915.75;5421482;26;20009;-71
2024/04/18 08:32:31;;;;;;;17.13;9.18;;;;;;;13.94;49.57;98919.41;5433393;26;20018;-71
2024/04/18 08:34:57;;;;;;;8.70;5.50;;;;;;;13.77;49.11;98898.25;5433469;26;19999;-71
2024/04/18 08:37:23;;;;;;;11.00;5.97;;;;;;;13.52;49.38;98922.66;5462971;26;20073;-72
2024/04/18 08:39:49;;;;;;;10.32;5.30;;;;;;;13.58;49.58;98942.47;5459389;26;20010;-71
2024/04/18 08:42:22;;;;;;;10.00;5.55;;;;;;;13.16;49.37;98921.19;5425015;26;20022;-72
2024/04/18 08:44:54;;;;;;;6.80;5.22;;;;;;;12.93;49.59;98911.53;5402613;26;19998;-72
2024/04/18 08:47:28;;;;;;;10.98;5.55;;;;;;;12.75;50.00;98894.69;5407286;26;20002;-72
2024/04/18 08:49:55;;;;;;;15.70;5.68;;;;;;;13.06;50.50;98925.88;5400063;26;20030;-71
2024/04/18 08:52:21;;;;;;;8.55;5.72;;;;;;;12.88;50.08;98916.03;5432103;26;20002;-72
2024/04/18 08:54:48;;;;;;;10.90;5.93;;;;;;;12.67;49.73;98925.44;5463571;26;20002;-71
2024/04/18 08:57:19;;;;;;;10.18;6.03;;;;;;;12.53;50.25;98900.59;5425525;26;20364;-73
2024/04/18 08:59:48;;;;;;;8.25;4.40;;;;;;;12.81;50.92;98951.94;5462321;26;20013;-71
2024/04/18 09:02:15;;;;;;;10.95;5.18;;;;;;;12.73;50.26;98930.44;5459063;26;20030;-74
2024/04/18 09:04:42;;;;;;;9.38;5.32;;;;;;;12.94;50.65;98961.06;5464795;26;20440;-72
2024/04/18 09:07:08;;;;;;;8.45;5.35;;;;;;;12.86;51.09;98960.50;5456012;26;20078;-72
2024/04/18 09:09:35;;;;;;;7.68;4.70;;;;;;;12.78;51.25;98962.47;5463947;26;19998;-71
2024/04/18 09:12:02;;;;;;;9.20;4.70;;;;;;;12.82;51.55;98969.31;5450412;26;20074;-71
2024/04/18 09:14:34;;;;;;;7.95;4.93;;;;;;;12.65;51.42;98918.50;5454192;26;19995;-71
2024/04/18 09:17:00;;;;;;;10.32;4.60;;;;;;;12.95;51.44;98931.44;5436317;26;20060;-73
2024/04/18 09:19:28;;;;;;;8.45;4.88;;;;;;;13.03;51.54;98954.69;5460256;26;20010;-71
2024/04/18 09:21:54;;;;;;;5.72;4.18;;;;;;;13.04;51.22;98964.25;5422529;26;20552;-72
2024/04/18 09:24:20;;;;;;;5.93;4.22;;;;;;;12.96;51.46;98977.56;5431668;26;20039;-72
2024/04/18 09:26:46;;;;;;;4.70;3.17;;;;;;;12.62;51.80;98936.84;5371600;26;20025;-71
2024/04/18 09:29:12;;;;;;;5.95;3.30;;;;;;;12.84;52.40;98957.06;5403648;26;20014;-72
2024/04/18 09:31:39;;;;;;;5.03;3.33;;;;;;;12.82;52.91;98911.88;5407876;26;20018;-74
2024/04/18 09:34:06;;;;;;;4.85;3.28;;;;;;;13.08;51.84;98925.84;5457604;26;20079;-71
2024/04/18 09:36:32;;;;;;;4.47;3.70;;;;;;;13.04;51.68;98956.41;5427117;26;20011;-72
2024/04/18 09:39:02;;;;;;;6.28;4.10;;;;;;;12.50;51.28;98911.13;5430696;26;20002;-72
2024/04/18 09:41:33;;;;;;;9.98;3.78;;;;;;;12.72;51.24;98991.38;5434268;26;20429;-73
2024/04/18 09:44:15;;;;;;;8.27;3.70;;;;;;;12.53;51.59;98998.91;5434346;26;20002;-72
2024/04/18 09:46:42;;;;;;;;;;;;;;;12.49;51.45;99004.22;5450919;26;21225;-73
2024/04/18 09:49:09;;;;;;;12.57;3.80;;;;;;;12.30;51.38;98956.94;5456878;26;19924;-71
2024/04/18 09:51:36;;;;;;;6.18;3.78;;;;;;;12.51;50.81;98975.47;5430976;26;20047;-72
2024/04/18 09:54:04;;;;;;;6.35;4.45;;;;;;;12.69;51.12;99009.75;5433518;26;20006;-72
2024/04/18 09:56:33;;;;;;;4.68;2.35;;;;;;;12.37;50.52;98964.59;5456425;26;20017;-71
2024/04/18 09:59:00;;;;;;;5.13;2.58;;;;;;;11.94;50.38;98948.38;5457379;26;20009;-72
2024/04/18 10:01:28;;;;;;;4.90;2.90;;;;;;;11.91;50.85;98985.81;5469406;26;21811;-71
2024/04/18 10:03:54;;;;;;;4.45;2.85;;;;;;;11.75;51.85;98986.25;5427854;26;20017;-73
2024/04/18 10:06:29;;;;;;;5.55;2.95;;;;;;;11.75;52.54;98986.25;5411875;26;20464;-71
2024/04/18 10:08:57;;;;;;;5.50;3.22;;;;;;;11.32;52.53;98957.84;5465127;26;20372;-71
2024/04/18 10:11:26;;;;;;;7.70;3.33;;;;;;;11.49;54.00;99010.34;5433938;26;20013;-72
2024/04/18 10:13:58;;;;;;;4.75;3.40;;;;;;;11.50;54.23;99019.88;5436691;26;20009;-71
2024/04/18 10:16:29;;;;;;;4.43;3.10;;;;;;;11.34;54.88;99026.38;5399654;26;20022;-72
2024/04/18 10:18:55;;;;;;;5.85;2.92;;;;;;;10.99;55.49;98995.06;5430396;26;20010;-72
2024/04/18 10:21:23;;;;;;;5.60;2.88;;;;;;;11.09;55.74;99027.81;5428929;26;20002;-72
2024/04/18 10:24:01;;;;;;;5.60;3.65;;;;;;;10.48;56.72;98958.03;5398786;26;19998;-72
2024/04/18 10:26:31;;;;;;;5.60;3.75;;;;;;;10.70;58.03;98975.81;5423528;26;20009;-72
2024/04/18 10:28:57;;;;;;;6.32;3.22;;;;;;;10.78;57.47;98994.69;5438694;26;20013;-72
2024/04/18 10:31:29;;;;;;;6.60;4.20;;;;;;;10.90;58.60;99018.72;5466200;26;20003;-72
2024/04/18 10:33:56;;;;;;;;;;;;;;;11.10;58.15;99032.16;5464752;26;20007;-73
2024/04/18 10:36:24;;;;;;;8.77;5.10;;;;;;;10.92;58.53;98998.72;5464898;26;19931;-73
2024/04/18 10:38:50;;;;;;;7.43;4.53;;;;;;;11.28;58.89;99020.41;5464519;26;20480;-72
2024/04/18 10:41:22;;;;;;;6.40;3.00;;;;;;;11.11;58.40;99002.63;5434018;26;20068;-71
2024/04/18 10:43:49;;;;;;;5.93;2.90;;;;;;;10.93;58.46;98987.41;5434617;26;19998;-74
2024/04/18 10:46:18;;;;;;;6.72;3.63;;;;;;;10.72;58.37;98963.59;5438316;26;20017;-72
2024/04/18 10:48:50;;;;;;;9.57;4.95;;;;;;;11.28;58.97;99017.81;5436599;26;20044;-72
2024/04/18 10:51:16;;;;;;;4.60;2.50;;;;;;;11.15;59.25;98978.19;5433057;26;20017;-73
2024/04/18 10:53:42;;;;;;;3.85;2.50;;;;;;;11.30;58.99;98983.94;5435373;26;20371;-74
2024/04/18 10:56:08;;;;;;;2.08;1.88;;;;;;;11.63;58.74;99032.63;5437070;26;20002;-73
2024/04/18 10:58:37;;;;;;;3.97;2.35;;;;;;;11.73;58.44;99018.44;5464764;26;20010;-71
2024/04/18 11:01:03;;;;;;;4.32;2.58;;;;;;;11.33;57.50;98972.56;5438120;26;20007;-75
2024/04/18 11:03:30;;;;;;;11.05;4.07;;;;;;;11.55;58.25;99005.00;5430571;26;20010;-72
2024/04/18 11:06:04;;;;;;;6.07;3.45;;;;;;;11.33;57.64;99009.91;5454135;26;20019;-73
2024/04/18 11:08:30;;;;;;;4.45;3.17;;;;;;;11.30;58.91;99007.38;5457240;26;20488;-73
2024/04/18 11:10:57;;;;;;;2.38;2.10;;;;;;;11.37;58.60;98963.78;5464305;26;20031;-74
2024/04/18 11:13:31;;;;;;;5.47;2.45;;;;;;;11.22;58.18;98939.00;5435216;26;20007;-72
2024/04/18 11:15:57;;;;;;;3.30;2.67;;;;;;;11.58;57.85;98998.88;5438280;26;20012;-72
2024/04/18 11:18:24;;;;;;;4.63;3.47;;;;;;;11.45;58.16;98970.50;5468090;26;20348;-73
2024/04/18 11:20:55;;;;;;;6.22;4.30;;;;;;;11.42;57.51;98933.28;5467482;26;20049;-72
2024/04/18 11:23:24;;;;;;;5.68;3.70;;;;;;;11.95;58.22;98978.75;5469047;26;20421;-73
2024/04/18 11:25:52;;;;;;;5.68;3.28;;;;;;;11.90;58.02;98984.13;5468249;26;20002;-74
2024/04/18 11:28:18;;;;;;;5.13;2.40;;;;;;;11.87;57.53;98994.63;5486531;26;20060;-74
2024/04/18 11:30:46;;;;;;;3.55;2.50;;;;;;;11.51;57.51;98937.38;5435130;26;19998;-74
2024/04/18 11:33:22;;;;;;;2.40;2.05;;;;;;;11.67;57.79;98977.78;5407782;26;20082;-72
2024/04/18 11:35:49;;;;;;;3.75;2.03;;;;;;;11.71;58.31;98984.63;5462743;26;19998;-72
2024/04/18 11:38:17;;;;;;;5.18;1.98;;;;;;;11.58;58.20;98962.41;5406188;26;20130;-72
2024/04/18 11:40:46;;;;;;;3.75;2.17;;;;;;;11.65;58.09;98974.34;5455761;26;20125;-72
2024/04/18 11:43:12;;;;;;;3.20;2.30;;;;;;;11.94;57.84;99001.38;5467201;26;20074;-72
2024/04/18 11:45:39;;;;;;;4.05;2.25;;;;;;;11.72;57.80;98986.31;5457904;26;20002;-72
2024/04/18 11:48:06;;;;;;;3.20;2.47;;;;;;;11.75;57.97;98983.66;5425086;26;20026;-72
2024/04/18 11:50:32;;;;;;;2.38;2.17;;;;;;;11.89;57.90;98998.03;5431763;26;20025;-72